createdAt,value
2018-07-07T00:01:16.563Z,18.73
2018-07-07T00:03:44.998Z,18.53
2018-07-07T00:06:13.421Z,18.51
2018-07-07T00:08:41.865Z,18.52
2018-07-07T00:11:10.281Z,18.45
2018-07-07T00:13:38.759Z,18.45
2018-07-07T00:16:07.779Z,18.37
2018-07-07T00:18:36.253Z,18.38
2018-07-07T00:21:04.674Z,18.35
2018-07-07T00:23:33.259Z,18.32
2018-07-07T00:26:02.553Z,18.23
2018-07-07T00:28:31.233Z,18.20
2018-07-07T00:30:59.614Z,18.18
2018-07-07T00:33:28.094Z,18.16
2018-07-07T00:35:56.565Z,18.12
2018-07-07T00:38:24.970Z,18.13
2018-07-07T00:40:53.385Z,17.97
2018-07-07T00:43:21.779Z,17.79
2018-07-07T00:45:50.171Z,17.90
2018-07-07T00:48:18.605Z,17.82
2018-07-07T00:50:47.041Z,17.85
2018-07-07T00:53:15.477Z,17.81
2018-07-07T00:55:43.921Z,17.69
2018-07-07T00:58:12.349Z,17.62
2018-07-07T01:00:48.802Z,17.58
2018-07-07T01:03:17.254Z,17.57
2018-07-07T01:05:46.304Z,17.59
2018-07-07T01:08:15.038Z,17.51
2018-07-07T01:10:43.616Z,17.53
2018-07-07T01:13:12.122Z,17.54
2018-07-07T01:15:40.853Z,17.53
2018-07-07T01:18:09.845Z,17.51
2018-07-07T01:20:38.298Z,17.44
2018-07-07T01:23:06.676Z,17.41
2018-07-07T01:25:35.079Z,17.38
2018-07-07T01:28:03.521Z,17.37
2018-07-07T01:30:32.025Z,17.38
2018-07-07T01:33:00.415Z,17.35
2018-07-07T01:35:28.817Z,17.37
2018-07-07T01:37:57.278Z,17.36
2018-07-07T01:40:25.674Z,17.32
2018-07-07T01:42:54.161Z,17.21
2018-07-07T01:45:22.585Z,17.18
2018-07-07T01:47:51.016Z,17.13
2018-07-07T01:50:19.469Z,17.04
2018-07-07T01:52:47.903Z,16.97
2018-07-07T01:55:16.328Z,16.94
2018-07-07T01:57:44.739Z,16.83
2018-07-07T02:00:13.220Z,16.71
2018-07-07T02:02:41.728Z,16.68
2018-07-07T02:05:10.147Z,16.67
2018-07-07T02:07:38.543Z,16.69
2018-07-07T02:10:06.992Z,16.58
2018-07-07T02:12:35.416Z,16.56
2018-07-07T02:15:03.914Z,16.54
2018-07-07T02:17:32.381Z,16.53
2018-07-07T02:20:00.799Z,16.50
2018-07-07T02:22:29.229Z,16.48
2018-07-07T02:24:57.684Z,16.43
2018-07-07T02:27:26.127Z,16.34
2018-07-07T02:29:55.050Z,16.28
2018-07-07T02:32:23.457Z,16.28
2018-07-07T02:34:51.917Z,16.25
2018-07-07T02:37:20.331Z,16.26
2018-07-07T02:39:48.753Z,16.24
2018-07-07T02:42:17.280Z,16.16
2018-07-07T02:44:45.746Z,16.15
2018-07-07T02:47:14.189Z,16.17
2018-07-07T02:49:42.677Z,16.16
2018-07-07T02:52:11.151Z,16.17
2018-07-07T02:54:39.741Z,16.17
2018-07-07T02:57:08.203Z,16.11
2018-07-07T02:59:36.710Z,16.11
2018-07-07T03:02:05.154Z,16.10
2018-07-07T03:04:33.628Z,16.04
2018-07-07T03:07:02.109Z,16.02
2018-07-07T03:09:30.574Z,16.00
2018-07-07T03:11:59.214Z,16.04
2018-07-07T03:14:27.734Z,16.04
2018-07-07T03:16:56.213Z,16.10
2018-07-07T03:19:24.709Z,16.13
2018-07-07T03:21:53.226Z,16.15
2018-07-07T03:24:21.724Z,16.11
2018-07-07T03:26:50.133Z,16.06
2018-07-07T03:29:18.588Z,15.72
2018-07-07T03:31:47.831Z,15.74
2018-07-07T03:34:16.413Z,15.86
2018-07-07T03:36:45.007Z,15.79
2018-07-07T03:39:13.829Z,15.79
2018-07-07T03:41:42.309Z,15.81
2018-07-07T03:44:10.807Z,15.88
2018-07-07T03:46:39.286Z,15.88
2018-07-07T03:49:07.728Z,15.87
2018-07-07T03:51:36.349Z,15.76
2018-07-07T03:54:05.042Z,15.67
2018-07-07T03:56:33.457Z,15.72
2018-07-07T03:59:01.851Z,15.76
2018-07-07T04:01:30.275Z,15.85
2018-07-07T04:03:58.675Z,15.91
2018-07-07T04:06:27.217Z,15.95
2018-07-07T04:08:55.771Z,16.01
2018-07-07T04:11:24.192Z,16.09
2018-07-07T04:13:52.978Z,16.14
2018-07-07T04:16:21.485Z,16.13
2018-07-07T04:18:50.625Z,16.13
2018-07-07T04:21:19.103Z,16.18
2018-07-07T04:23:47.532Z,16.29
2018-07-07T04:26:16.426Z,16.21
2018-07-07T04:28:45.427Z,16.11
2018-07-07T04:31:13.873Z,16.12
2018-07-07T04:33:42.310Z,16.31
2018-07-07T04:36:10.713Z,16.55
2018-07-07T04:38:39.110Z,16.80
2018-07-07T04:41:07.572Z,16.91
2018-07-07T04:43:36.001Z,17.08
2018-07-07T04:46:04.702Z,17.14
2018-07-07T04:48:33.048Z,17.32
2018-07-07T04:51:01.858Z,17.24
2018-07-07T04:53:30.403Z,17.33
2018-07-07T04:55:58.969Z,17.47
2018-07-07T04:58:27.463Z,17.47
2018-07-07T05:00:56.026Z,17.46
2018-07-07T05:03:24.543Z,17.57
2018-07-07T05:05:53.065Z,17.64
2018-07-07T05:08:22.229Z,17.62
2018-07-07T05:10:50.774Z,17.24
2018-07-07T05:13:19.241Z,16.85
2018-07-07T05:15:48.202Z,16.95
2018-07-07T05:18:16.697Z,16.96
2018-07-07T05:20:45.141Z,17.03
2018-07-07T05:23:13.688Z,17.30
2018-07-07T05:25:42.631Z,17.19
2018-07-07T05:28:11.085Z,17.52
2018-07-07T05:30:39.533Z,17.56
2018-07-07T05:33:07.970Z,18.04
2018-07-07T05:35:36.455Z,18.09
2018-07-07T05:38:04.896Z,17.54
2018-07-07T05:40:33.939Z,17.70
2018-07-07T05:43:02.368Z,17.51
2018-07-07T05:45:31.177Z,17.69
2018-07-07T05:47:59.633Z,17.84
2018-07-07T05:50:28.147Z,17.77
2018-07-07T05:52:56.628Z,18.01
2018-07-07T05:55:25.137Z,17.82
2018-07-07T05:57:53.601Z,18.25
2018-07-07T06:00:22.052Z,18.36
2018-07-07T06:02:50.570Z,18.37
2018-07-07T06:05:19.026Z,18.34
2018-07-07T06:07:47.508Z,18.74
2018-07-07T06:10:15.970Z,19.02
2018-07-07T06:12:44.409Z,18.95
2018-07-07T06:15:12.891Z,19.28
2018-07-07T06:17:41.428Z,19.44
2018-07-07T06:20:09.933Z,19.28
2018-07-07T06:22:38.392Z,18.98
2018-07-07T06:25:06.873Z,19.90
2018-07-07T06:27:35.346Z,20.01
2018-07-07T06:30:03.853Z,20.15
2018-07-07T06:32:32.357Z,20.74
2018-07-07T06:35:00.812Z,20.50
2018-07-07T06:37:29.280Z,19.96
2018-07-07T06:39:57.794Z,19.71
2018-07-07T06:42:26.258Z,20.19
2018-07-07T06:44:54.710Z,20.42
2018-07-07T06:47:23.190Z,20.50
2018-07-07T06:49:51.637Z,21.01
2018-07-07T06:52:20.049Z,20.95
2018-07-07T06:54:48.428Z,20.99
2018-07-07T06:57:16.836Z,21.10
2018-07-07T06:59:45.336Z,20.98
2018-07-07T07:02:13.897Z,20.60
2018-07-07T07:04:42.314Z,20.65
2018-07-07T07:07:10.776Z,21.37
2018-07-07T07:09:39.261Z,21.21
2018-07-07T07:12:07.728Z,20.75
2018-07-07T07:14:36.194Z,20.82
2018-07-07T07:17:04.690Z,20.44
2018-07-07T07:19:33.093Z,20.78
2018-07-07T07:22:01.558Z,20.67
2018-07-07T07:24:30.042Z,20.68
2018-07-07T07:26:58.489Z,21.09
2018-07-07T07:29:26.880Z,21.07
2018-07-07T07:31:55.309Z,21.13
2018-07-07T07:34:23.740Z,21.59
2018-07-07T07:36:52.302Z,20.98
2018-07-07T07:39:20.831Z,21.11
2018-07-07T07:41:50.299Z,21.33
2018-07-07T07:44:18.690Z,21.57
2018-07-07T07:46:47.132Z,21.60
2018-07-07T07:49:15.669Z,21.41
2018-07-07T07:51:44.085Z,21.56
2018-07-07T07:54:12.522Z,22.26
2018-07-07T07:56:42.166Z,21.98
2018-07-07T07:59:10.584Z,21.68
2018-07-07T08:01:39.035Z,22.01
2018-07-07T08:04:07.479Z,22.65
2018-07-07T08:06:35.915Z,22.39
2018-07-07T08:09:04.841Z,22.32
2018-07-07T08:11:33.255Z,22.79
2018-07-07T08:14:01.670Z,23.38
2018-07-07T08:16:30.078Z,23.72
2018-07-07T08:18:58.527Z,23.23
2018-07-07T08:21:26.952Z,23.46
2018-07-07T08:23:55.389Z,23.40
2018-07-07T08:26:23.954Z,23.11
2018-07-07T08:28:58.994Z,23.02
2018-07-07T08:31:27.428Z,23.63
2018-07-07T08:33:55.828Z,24.23
2018-07-07T08:36:24.251Z,23.83
2018-07-07T08:38:52.665Z,23.45
2018-07-07T08:41:21.060Z,23.53
2018-07-07T08:43:49.527Z,24.02
2018-07-07T08:46:18.023Z,23.31
2018-07-07T08:48:46.425Z,22.87
2018-07-07T08:51:14.921Z,23.87
2018-07-07T08:53:44.329Z,24.29
2018-07-07T08:56:13.066Z,24.04
2018-07-07T08:58:42.162Z,23.27
2018-07-07T09:01:10.590Z,23.63
2018-07-07T09:03:39.017Z,23.06
2018-07-07T09:06:07.493Z,23.30
2018-07-07T09:08:35.944Z,23.34
2018-07-07T09:11:04.355Z,23.28
2018-07-07T09:13:32.789Z,23.17
2018-07-07T09:16:01.718Z,23.34
2018-07-07T09:18:30.163Z,23.02
2018-07-07T09:20:58.582Z,23.43
2018-07-07T09:23:27.043Z,23.91
2018-07-07T09:25:55.454Z,23.97
2018-07-07T09:28:23.920Z,23.14
2018-07-07T09:30:52.364Z,23.05
2018-07-07T09:33:20.785Z,23.76
2018-07-07T09:35:49.257Z,23.65
2018-07-07T09:38:17.735Z,23.63
2018-07-07T09:40:46.243Z,23.73
2018-07-07T09:43:14.718Z,23.63
2018-07-07T09:45:43.118Z,23.38
2018-07-07T09:48:11.545Z,23.83
2018-07-07T09:50:39.967Z,23.65
2018-07-07T09:53:08.399Z,23.59
2018-07-07T09:55:36.784Z,23.63
2018-07-07T09:58:05.230Z,23.71
2018-07-07T10:00:38.942Z,23.67
2018-07-07T10:03:07.420Z,23.66
2018-07-07T10:05:35.902Z,23.83
2018-07-07T10:08:04.767Z,23.59
2018-07-07T10:10:33.510Z,24.21
2018-07-07T10:13:01.930Z,24.02
2018-07-07T10:15:30.383Z,24.19
2018-07-07T10:17:58.800Z,23.81
2018-07-07T10:20:27.291Z,24.05
2018-07-07T10:22:55.837Z,24.31
2018-07-07T10:25:24.315Z,24.38
2018-07-07T10:27:52.757Z,24.61
2018-07-07T10:30:21.197Z,24.93
2018-07-07T10:32:49.730Z,24.80
2018-07-07T10:35:18.161Z,25.02
2018-07-07T10:37:46.550Z,25.27
2018-07-07T10:40:14.964Z,25.03
2018-07-07T10:42:43.377Z,24.69
2018-07-07T10:45:11.795Z,24.63
2018-07-07T10:47:40.216Z,24.98
2018-07-07T10:50:08.697Z,25.04
2018-07-07T10:52:37.160Z,25.28
2018-07-07T10:55:05.658Z,24.99
2018-07-07T10:57:34.089Z,24.39
2018-07-07T11:00:02.537Z,25.12
2018-07-07T11:02:30.975Z,25.30
2018-07-07T11:04:59.421Z,25.45
2018-07-07T11:07:27.858Z,25.41
2018-07-07T11:09:56.299Z,25.50
2018-07-07T11:12:24.802Z,25.50
2018-07-07T11:14:53.884Z,25.50
2018-07-07T11:17:22.428Z,24.73
2018-07-07T11:19:50.882Z,25.04
2018-07-07T11:22:19.319Z,25.08
2018-07-07T11:24:47.817Z,25.12
2018-07-07T11:27:16.250Z,24.95
2018-07-07T11:29:44.740Z,25.52
2018-07-07T11:32:13.153Z,25.59
2018-07-07T11:34:41.673Z,25.68
2018-07-07T11:37:10.164Z,25.57
2018-07-07T11:39:38.897Z,25.81
2018-07-07T11:42:07.412Z,25.99
2018-07-07T11:44:35.886Z,26.01
2018-07-07T11:47:04.441Z,25.64
2018-07-07T11:49:32.875Z,25.29
2018-07-07T11:52:01.306Z,26.29
2018-07-07T11:54:29.733Z,26.54
2018-07-07T11:56:58.109Z,26.40
2018-07-07T11:59:26.536Z,26.52
2018-07-07T12:01:54.994Z,26.42
2018-07-07T12:04:23.445Z,26.67
2018-07-07T12:06:52.173Z,26.32
2018-07-07T12:09:21.242Z,26.61
2018-07-07T12:11:49.654Z,26.85
2018-07-07T12:14:18.115Z,26.69
2018-07-07T12:16:46.525Z,26.67
2018-07-07T12:19:14.945Z,26.80
2018-07-07T12:21:43.376Z,26.95
2018-07-07T12:24:11.802Z,27.11
2018-07-07T12:26:40.245Z,26.11
2018-07-07T12:29:08.661Z,26.38
2018-07-07T12:31:37.067Z,26.49
2018-07-07T12:34:05.779Z,26.04
2018-07-07T12:36:34.240Z,26.34
2018-07-07T12:39:02.672Z,26.43
2018-07-07T12:41:31.137Z,26.58
2018-07-07T12:44:00.155Z,27.00
2018-07-07T12:46:28.611Z,26.98
2018-07-07T12:48:57.061Z,27.14
2018-07-07T12:51:25.558Z,27.50
2018-07-07T12:53:53.993Z,27.39
2018-07-07T12:56:22.501Z,26.53
2018-07-07T12:58:51.218Z,26.20
2018-07-07T13:01:19.675Z,27.20
2018-07-07T13:03:48.181Z,26.49
2018-07-07T13:06:16.653Z,26.90
2018-07-07T13:09:08.309Z,27.77
2018-07-07T13:11:37.067Z,27.54
2018-07-07T13:14:05.688Z,27.54
2018-07-07T13:16:34.242Z,27.78
2018-07-07T13:19:02.844Z,28.53
2018-07-07T13:21:31.280Z,29.48
2018-07-07T13:23:59.709Z,28.24
2018-07-07T13:26:28.169Z,28.67
2018-07-07T13:28:56.553Z,29.99
2018-07-07T13:31:24.937Z,28.67
2018-07-07T13:33:53.565Z,30.96
2018-07-07T13:36:21.998Z,31.22
2018-07-07T13:38:50.438Z,31.01
2018-07-07T13:41:19.321Z,30.20
2018-07-07T13:43:49.685Z,29.65
2018-07-07T13:46:28.452Z,28.70
2018-07-07T13:48:56.829Z,29.65
2018-07-07T13:51:25.275Z,29.10
2018-07-07T13:53:53.749Z,30.02
2018-07-07T13:56:22.202Z,30.72
2018-07-07T13:58:50.682Z,30.18
2018-07-07T14:01:20.190Z,31.39
2018-07-07T14:03:48.630Z,31.06
2018-07-07T14:06:17.543Z,28.66
2018-07-07T14:08:46.030Z,30.43
2018-07-07T14:11:14.505Z,29.38
2018-07-07T14:13:43.005Z,29.25
2018-07-07T14:16:11.513Z,29.56
2018-07-07T14:18:39.964Z,30.67
2018-07-07T14:21:08.630Z,31.91
2018-07-07T14:23:37.320Z,30.11
2018-07-07T14:26:05.712Z,30.21
2018-07-07T14:28:34.244Z,29.65
2018-07-07T14:31:02.781Z,29.61
2018-07-07T14:33:31.233Z,29.65
2018-07-07T14:35:59.737Z,29.85
2018-07-07T14:38:34.871Z,30.76
2018-07-07T14:41:11.708Z,30.77
2018-07-07T14:43:52.845Z,29.75
2018-07-07T14:46:21.660Z,32.23
2018-07-07T14:48:50.146Z,31.80
2018-07-07T14:51:18.658Z,32.43
2018-07-07T14:53:47.146Z,33.19
2018-07-07T14:56:16.706Z,33.64
2018-07-07T14:58:45.124Z,32.10
2018-07-07T15:01:13.574Z,32.02
2018-07-07T15:03:42.260Z,31.56
2018-07-07T15:06:10.908Z,31.04
2018-07-07T15:08:39.601Z,30.99
2018-07-07T15:11:15.807Z,32.75
2018-07-07T15:13:47.106Z,32.42
2018-07-07T15:16:15.591Z,33.25
2018-07-07T15:18:44.495Z,34.21
2018-07-07T15:21:12.927Z,31.89
2018-07-07T15:23:41.355Z,31.37
2018-07-07T15:26:09.748Z,31.55
2018-07-07T15:28:38.117Z,32.15
2018-07-07T15:31:06.709Z,32.23
2018-07-07T15:33:35.162Z,31.47
2018-07-07T15:36:03.626Z,29.09
2018-07-07T15:38:32.031Z,29.96
2018-07-07T15:41:00.487Z,30.15
2018-07-07T15:43:28.887Z,30.64
2018-07-07T15:45:57.353Z,31.75
2018-07-07T15:48:25.738Z,32.51
2018-07-07T15:50:55.325Z,32.85
2018-07-07T15:53:23.778Z,33.15
2018-07-07T15:55:52.254Z,31.81
2018-07-07T15:58:20.698Z,32.63
2018-07-07T16:00:49.161Z,31.53
2018-07-07T16:03:17.661Z,32.64
2018-07-07T16:05:46.097Z,32.25
2018-07-07T16:08:14.598Z,29.28
2018-07-07T16:10:43.067Z,30.10
2018-07-07T16:13:11.567Z,31.58
2018-07-07T16:15:39.999Z,31.10
2018-07-07T16:18:08.504Z,32.72
2018-07-07T16:20:36.941Z,32.83
2018-07-07T16:23:05.446Z,30.50
2018-07-07T16:25:33.840Z,29.47
2018-07-07T16:28:02.267Z,30.32
2018-07-07T16:30:30.698Z,29.10
2018-07-07T16:32:59.149Z,28.74
2018-07-07T16:35:27.573Z,28.97
2018-07-07T16:37:56.059Z,29.62
2018-07-07T16:40:24.492Z,30.36
2018-07-07T16:42:53.006Z,29.32
2018-07-07T16:45:21.639Z,28.23
2018-07-07T16:47:50.435Z,28.11
2018-07-07T16:50:19.091Z,28.14
2018-07-07T16:52:47.747Z,27.97
2018-07-07T16:55:16.797Z,28.66
2018-07-07T16:57:45.410Z,29.61
2018-07-07T17:00:14.125Z,29.68
2018-07-07T17:02:43.539Z,29.51
2018-07-07T17:05:12.309Z,29.69
2018-07-07T17:07:41.279Z,29.09
2018-07-07T17:10:09.729Z,28.35
2018-07-07T17:12:38.251Z,28.85
2018-07-07T17:15:07.067Z,29.06
2018-07-07T17:17:35.874Z,29.25
2018-07-07T17:20:07.699Z,28.89
2018-07-07T17:22:38.154Z,28.95
2018-07-07T17:25:06.811Z,28.53
2018-07-07T17:27:35.416Z,27.91
2018-07-07T17:30:04.624Z,27.49
2018-07-07T17:32:33.630Z,27.22
2018-07-07T17:35:02.626Z,27.27
2018-07-07T17:37:31.098Z,27.08
2018-07-07T17:39:59.581Z,27.25
2018-07-07T17:42:28.063Z,26.89
2018-07-07T17:44:56.529Z,26.86
2018-07-07T17:47:25.105Z,26.72
2018-07-07T17:49:53.877Z,26.49
2018-07-07T17:52:23.911Z,26.79
2018-07-07T17:54:52.553Z,26.51
2018-07-07T17:57:28.201Z,26.84
2018-07-07T17:59:57.348Z,26.98
2018-07-07T18:02:26.576Z,27.18
2018-07-07T18:04:55.938Z,27.79
2018-07-07T18:07:30.850Z,27.63
2018-07-07T18:09:59.512Z,28.68
2018-07-07T18:12:28.658Z,28.37
2018-07-07T18:14:57.695Z,27.64
2018-07-07T18:17:26.233Z,28.46
2018-07-07T18:19:54.946Z,28.66
2018-07-07T18:22:23.348Z,27.77
2018-07-07T18:24:51.830Z,28.35
2018-07-07T18:27:20.298Z,28.16
2018-07-07T18:29:48.714Z,28.06
2018-07-07T18:32:17.139Z,27.61
2018-07-07T18:34:45.569Z,27.20
2018-07-07T18:37:14.006Z,26.84
2018-07-07T18:39:42.493Z,26.15
2018-07-07T18:42:10.935Z,25.98
2018-07-07T18:44:39.998Z,25.72
2018-07-07T18:47:08.462Z,25.48
2018-07-07T18:49:36.913Z,25.47
2018-07-07T18:52:05.361Z,25.37
2018-07-07T18:54:33.786Z,25.08
2018-07-07T18:57:02.266Z,25.09
2018-07-07T18:59:30.759Z,25.16
2018-07-07T19:01:59.268Z,24.92
2018-07-07T19:04:27.661Z,24.93
2018-07-07T19:06:56.219Z,24.77
2018-07-07T19:09:24.848Z,24.70
2018-07-07T19:11:53.267Z,24.61
2018-07-07T19:14:21.826Z,24.69
2018-07-07T19:16:50.256Z,24.60
2018-07-07T19:19:18.711Z,24.43
2018-07-07T19:21:52.785Z,24.33
2018-07-07T19:24:26.482Z,24.24
2018-07-07T19:26:55.588Z,24.16
2018-07-07T19:29:24.171Z,24.04
2018-07-07T19:31:57.761Z,23.96
2018-07-07T19:34:31.364Z,23.86
2018-07-07T19:37:05.110Z,23.75
2018-07-07T19:39:33.518Z,23.68
2018-07-07T19:42:02.022Z,23.60
2018-07-07T19:44:30.440Z,23.50
2018-07-07T19:46:58.882Z,23.40
2018-07-07T19:49:27.335Z,23.25
2018-07-07T19:51:55.754Z,23.18
2018-07-07T19:54:24.235Z,23.06
2018-07-07T19:56:52.677Z,22.85
2018-07-07T19:59:21.202Z,22.76
2018-07-07T20:01:50.698Z,22.73
2018-07-07T20:04:19.138Z,22.63
2018-07-07T20:06:47.552Z,22.45
2018-07-07T20:09:16.111Z,22.31
2018-07-07T20:11:44.568Z,22.31
2018-07-07T20:14:18.590Z,22.14
2018-07-07T20:16:58.245Z,21.99
2018-07-07T20:19:27.904Z,21.95
2018-07-07T20:22:02.508Z,21.94
2018-07-07T20:24:38.183Z,21.74
2018-07-07T20:27:12.672Z,21.82
2018-07-07T20:29:41.125Z,21.66
2018-07-07T20:32:14.989Z,21.59
2018-07-07T20:34:43.409Z,21.59
2018-07-07T20:37:11.818Z,21.57
2018-07-07T20:39:40.269Z,21.53
2018-07-07T20:42:08.725Z,21.39
2018-07-07T20:44:37.155Z,21.37
2018-07-07T20:47:05.805Z,21.26
2018-07-07T20:49:34.275Z,21.00
2018-07-07T20:52:02.751Z,20.96
2018-07-07T20:54:31.190Z,20.87
2018-07-07T20:56:59.654Z,20.73
2018-07-07T20:59:28.100Z,20.72
2018-07-07T21:01:56.703Z,20.77
2018-07-07T21:04:25.198Z,20.59
2018-07-07T21:06:53.609Z,20.64
2018-07-07T21:09:22.291Z,20.57
2018-07-07T21:11:50.679Z,20.51
2018-07-07T21:14:19.102Z,20.42
2018-07-07T21:16:47.536Z,20.40
2018-07-07T21:19:15.961Z,20.38
2018-07-07T21:21:44.371Z,20.38
2018-07-07T21:24:12.794Z,20.32
2018-07-07T21:26:41.230Z,20.30
2018-07-07T21:29:09.658Z,20.28
2018-07-07T21:31:38.112Z,20.10
2018-07-07T21:34:06.577Z,20.03
2018-07-07T21:36:35.023Z,19.90
2018-07-07T21:39:04.064Z,19.90
2018-07-07T21:41:32.478Z,19.91
2018-07-07T21:44:00.857Z,19.78
2018-07-07T21:49:04.984Z,19.53
2018-07-07T21:51:33.542Z,19.39
2018-07-07T21:54:02.104Z,19.29
2018-07-07T21:56:30.565Z,19.18
2018-07-07T21:59:04.644Z,19.16
2018-07-07T22:01:57.859Z,18.96
2018-07-07T22:04:32.549Z,18.97
2018-07-07T22:07:07.442Z,18.83
2018-07-07T22:09:36.842Z,18.70
2018-07-07T22:12:05.377Z,18.68
2018-07-07T22:14:34.958Z,18.66
2018-07-07T22:17:03.501Z,18.74
2018-07-07T22:19:31.964Z,18.58
2018-07-07T22:22:06.448Z,18.56
2018-07-07T22:24:35.051Z,18.42
2018-07-07T22:27:04.754Z,18.33
2018-07-07T22:29:33.216Z,18.26
2018-07-07T22:32:03.018Z,18.23
2018-07-07T22:34:39.436Z,18.20
2018-07-07T22:37:08.107Z,18.13
2018-07-07T22:39:37.744Z,18.04
2018-07-07T22:42:07.490Z,18.04
2018-07-07T22:44:36.520Z,17.85
2018-07-07T22:47:05.176Z,17.88
2018-07-07T22:49:33.814Z,17.72
2018-07-07T22:52:03.143Z,17.61
2018-07-07T22:54:31.644Z,17.62
2018-07-07T22:57:00.120Z,17.50
2018-07-07T22:59:28.541Z,17.41
2018-07-07T23:01:57.085Z,17.32
2018-07-07T23:04:25.728Z,17.30
2018-07-07T23:06:54.300Z,17.24
2018-07-07T23:09:22.782Z,17.23
2018-07-07T23:11:51.191Z,17.20
2018-07-07T23:14:19.651Z,17.15
2018-07-07T23:16:48.136Z,17.03
2018-07-07T23:19:16.574Z,17.03
2018-07-07T23:21:45.028Z,17.00
2018-07-07T23:24:13.617Z,17.00
2018-07-07T23:26:42.087Z,16.97
2018-07-07T23:29:10.527Z,16.90
2018-07-07T23:31:39.043Z,16.63
2018-07-07T23:34:07.471Z,16.59
2018-07-07T23:36:35.916Z,16.51
2018-07-07T23:39:05.143Z,16.42
2018-07-07T23:41:33.573Z,16.37
2018-07-07T23:44:02.085Z,16.49
2018-07-07T23:46:30.525Z,16.47
2018-07-07T23:48:58.946Z,16.42
2018-07-07T23:51:27.514Z,16.40
2018-07-07T23:53:55.978Z,16.38
2018-07-07T23:56:24.480Z,16.44
2018-07-07T23:58:53.045Z,16.37
